Time;durP1;ratioP1;P1;durP2;ratioP2;P2;SDS_P1;SDS_P2;PMS_P1;PMS_P2;Temp;Humidity;BMP_temperature;BMP_pressure;BME280_temperature;BME280_humidity;BME280_pressure;Samples;Min_cycle;Max_cycle;Signal;HPM_P1;HPM_P2
2021/12/02 00:00:48;;;;;;;8.75;3.78;;;29.00;79.20;;;;;;5089442;28;20024;-51
2021/12/02 00:03:15;;;;;;;11.40;4.70;;;29.00;78.90;;;;;;5081663;28;20104;-52
2021/12/02 00:05:42;;;;;;;10.20;4.43;;;29.00;78.30;;;;;;5086677;28;20029;-50
2021/12/02 00:08:10;;;;;;;10.48;4.38;;;29.00;78.00;;;;;;5085786;28;20016;-51
2021/12/02 00:10:40;;;;;;;10.75;4.78;;;28.90;78.10;;;;;;5076795;28;20152;-49
2021/12/02 00:13:07;;;;;;;7.55;4.60;;;28.90;77.60;;;;;;5089049;28;20027;-51
2021/12/02 00:15:48;;;;;;;7.63;4.38;;;28.90;77.90;;;;;;5067970;28;20137;-49
2021/12/02 00:21:06;;;;;;;13.73;3.60;;;28.90;77.40;;;;;;5079744;28;20020;-45
2021/12/02 00:23:57;;;;;;;9.35;3.42;;;28.90;77.10;;;;;;5061516;28;20032;-48
2021/12/02 00:26:24;;;;;;;8.18;3.72;;;28.90;76.50;;;;;;5081347;28;20051;-49
2021/12/02 00:28:54;;;;;;;8.18;3.38;;;28.90;76.70;;;;;;5061150;28;20059;-48
2021/12/02 00:31:23;;;;;;;10.88;3.60;;;28.80;76.00;;;;;;5066905;28;20036;-47
2021/12/02 00:33:53;;;;;;;5.45;3.45;;;28.80;76.40;;;;;;5085066;28;20012;-44
2021/12/02 00:36:23;;;;;;;9.30;3.50;;;28.70;76.20;;;;;;5083894;28;20075;-45
2021/12/02 00:38:51;;;;;;;11.15;3.58;;;28.70;76.40;;;;;;5082958;28;20020;-46
2021/12/02 00:41:24;;;;;;;7.63;3.55;;;28.70;76.10;;;;;;5073008;28;20036;-47
2021/12/02 00:43:53;;;;;;;8.50;3.88;;;28.70;75.90;;;;;;5058416;28;20027;-46
2021/12/02 00:46:32;;;;;;;9.70;3.72;;;28.70;76.10;;;;;;5070307;28;20032;-48
2021/12/02 00:49:02;;;;;;;11.75;4.00;;;28.70;76.30;;;;;;5075839;28;20031;-48
2021/12/02 00:51:34;;;;;;;5.80;3.58;;;28.70;76.60;;;;;;5077469;28;20024;-46
2021/12/02 00:54:04;;;;;;;5.82;3.30;;;28.60;76.70;;;;;;5067248;28;20091;-49
2021/12/02 00:56:32;;;;;;;8.23;3.55;;;28.60;76.70;;;;;;5078237;28;20028;-52
2021/12/02 00:58:59;;;;;;;7.53;3.47;;;28.60;76.70;;;;;;5057788;28;20016;-51
2021/12/02 01:01:34;;;;;;;7.10;3.28;;;28.60;76.80;;;;;;5076165;28;20013;-49
2021/12/02 01:04:13;;;;;;;9.05;3.17;;;28.50;76.60;;;;;;5074536;28;20205;-48
2021/12/02 01:06:43;;;;;;;5.63;3.30;;;28.50;76.00;;;;;;5075447;28;20021;-45
2021/12/02 01:09:12;;;;;;;4.90;3.20;;;28.40;76.00;;;;;;5073688;28;20190;-49
2021/12/02 01:11:39;;;;;;;6.30;3.08;;;28.40;75.60;;;;;;5099880;28;20096;-48
2021/12/02 01:14:07;;;;;;;8.00;3.03;;;28.40;75.40;;;;;;5092089;28;20155;-52
2021/12/02 01:16:34;;;;;;;8.05;3.30;;;28.50;75.40;;;;;;5080971;28;20035;-54
2021/12/02 01:19:02;;;;;;;9.77;3.22;;;28.40;75.20;;;;;;5078808;28;20024;-46
2021/12/02 01:21:29;;;;;;;48.45;7.05;;;28.40;74.40;;;;;;5057668;28;20048;-47
2021/12/02 01:24:03;;;;;;;14.85;3.20;;;28.40;74.00;;;;;;5073551;28;20012;-50
2021/12/02 01:26:32;;;;;;;35.88;6.18;;;28.50;74.30;;;;;;5074312;28;20028;-47
2021/12/02 01:29:00;;;;;;;49.55;7.72;;;28.40;73.70;;;;;;5073158;28;20016;-47
2021/12/02 01:31:37;;;;;;;26.95;5.15;;;28.40;73.40;;;;;;5075380;28;20200;-53
2021/12/02 01:34:09;;;;;;;24.90;4.18;;;28.40;73.00;;;;;;5081426;28;20024;-58
2021/12/02 01:36:38;;;;;;;15.80;3.63;;;28.40;73.10;;;;;;5065777;28;20053;-47
2021/12/02 01:39:07;;;;;;;9.18;2.70;;;28.40;72.90;;;;;;5078586;28;20024;-51
2021/12/02 01:41:54;;;;;;;12.70;3.00;;;28.40;73.20;;;;;;5081176;28;20123;-53
2021/12/02 01:44:23;;;;;;;10.07;2.88;;;28.40;73.30;;;;;;5081668;28;20047;-52
2021/12/02 01:46:55;;;;;;;10.38;2.95;;;28.30;73.60;;;;;;5082343;28;20008;-48
2021/12/02 01:49:25;;;;;;;7.90;2.60;;;28.30;73.50;;;;;;5056800;28;20031;-47
2021/12/02 01:51:55;;;;;;;6.95;2.67;;;28.20;74.30;;;;;;5073789;28;20046;-51
2021/12/02 01:54:27;;;;;;;9.02;3.17;;;28.20;74.00;;;;;;5077553;28;20071;-50
2021/12/02 01:57:07;;;;;;;9.88;3.00;;;28.20;73.40;;;;;;5082745;28;20020;-47
2021/12/02 01:59:39;;;;;;;10.45;3.05;;;28.20;73.20;;;;;;5077746;28;20087;-50
2021/12/02 02:02:10;;;;;;;8.43;3.00;;;28.20;73.40;;;;;;5084000;28;20016;-49
2021/12/02 02:04:39;;;;;;;9.07;3.10;;;28.20;73.20;;;;;;5084479;28;20031;-47
2021/12/02 02:07:12;;;;;;;6.20;2.55;;;28.20;73.30;;;;;;5049537;28;20021;-48
2021/12/02 02:09:40;;;;;;;6.03;2.92;;;28.20;73.20;;;;;;5069690;28;20378;-51
2021/12/02 02:12:10;;;;;;;10.02;3.03;;;28.20;73.20;;;;;;5074692;28;20336;-46
2021/12/02 02:14:40;;;;;;;7.13;2.72;;;28.20;72.90;;;;;;5045871;28;20060;-52
2021/12/02 02:17:22;;;;;;;7.63;2.78;;;28.20;73.40;;;;;;5046475;28;20041;-48
2021/12/02 02:19:49;;;;;;;5.63;2.50;;;28.10;73.70;;;;;;5064002;28;20037;-50
2021/12/02 02:22:21;;;;;;;7.45;2.95;;;28.10;73.20;;;;;;5064098;28;20032;-55
2021/12/02 02:24:48;;;;;;;7.38;2.50;;;28.10;72.70;;;;;;5063892;28;20100;-47
2021/12/02 02:27:16;;;;;;;6.95;2.65;;;28.10;72.60;;;;;;5063535;28;20021;-46
2021/12/02 02:29:43;;;;;;;5.65;2.50;;;28.10;72.70;;;;;;5045790;28;20029;-49
2021/12/02 02:32:10;;;;;;;4.95;2.20;;;28.10;72.60;;;;;;5046224;28;20363;-48
2021/12/02 02:34:36;;;;;;;5.28;2.60;;;28.10;72.60;;;;;;5063878;28;20032;-50
2021/12/02 02:37:05;;;;;;;8.02;2.83;;;28.10;72.60;;;;;;5045566;28;20333;-46
2021/12/02 02:39:34;;;;;;;8.52;2.78;;;28.10;72.20;;;;;;5047227;28;20036;-48
2021/12/02 02:42:04;;;;;;;6.20;2.25;;;28.00;72.30;;;;;;5063840;28;20198;-48
2021/12/02 02:44:37;;;;;;;4.70;2.33;;;28.00;72.30;;;;;;5066643;28;20017;-50
2021/12/02 02:47:03;;;;;;;;;;;28.00;72.50;;;;;;5067991;28;20013;-54
2021/12/02 02:49:30;;;;;;;4.78;2.15;;;28.00;72.40;;;;;;5068782;28;19908;-46
2021/12/02 02:51:57;;;;;;;4.20;2.40;;;28.00;72.30;;;;;;5068945;28;20209;-48
2021/12/02 02:54:24;;;;;;;6.47;3.33;;;27.90;72.40;;;;;;5067345;28;20028;-48
2021/12/02 02:57:06;;;;;;;8.05;2.95;;;28.00;72.50;;;;;;5049452;28;20020;-46
2021/12/02 03:05:20;;;;;;;7.47;3.10;;;27.90;73.50;;;;;;5074163;28;20024;-46
2021/12/02 03:13:39;;;;;;;6.28;3.25;;;28.00;72.90;;;;;;5023258;28;20021;-49
2021/12/02 03:18:41;;;;;;;7.93;3.30;;;28.00;72.70;;;;;;5067222;28;20028;-49
2021/12/02 03:21:19;;;;;;;7.75;3.10;;;28.00;72.80;;;;;;5067400;28;20024;-48
2021/12/02 03:23:54;;;;;;;8.85;3.65;;;28.00;73.10;;;;;;5067359;28;20028;-44
2021/12/02 03:26:21;;;;;;;7.95;3.10;;;28.00;72.80;;;;;;5066801;28;20205;-43
2021/12/02 03:28:49;;;;;;;4.15;2.80;;;28.00;72.70;;;;;;5067128;28;20017;-46
2021/12/02 03:31:17;;;;;;;6.13;2.70;;;28.00;72.30;;;;;;5067742;28;20029;-44
2021/12/02 03:33:44;;;;;;;5.05;2.75;;;28.00;72.60;;;;;;5048980;28;20017;-49
2021/12/02 03:36:12;;;;;;;5.68;2.33;;;28.00;72.30;;;;;;5066750;28;20057;-43
2021/12/02 03:38:39;;;;;;;5.60;2.47;;;28.00;72.40;;;;;;5066373;28;20021;-45
2021/12/02 03:41:07;;;;;;;3.00;2.55;;;28.00;72.00;;;;;;5066690;28;20024;-50
2021/12/02 03:43:42;;;;;;;3.25;2.33;;;28.00;72.70;;;;;;5066375;28;20058;-46
2021/12/02 03:46:11;;;;;;;5.35;2.47;;;28.00;72.20;;;;;;5048650;28;20205;-49
2021/12/02 03:48:38;;;;;;;7.78;2.38;;;27.90;72.10;;;;;;5066104;28;20027;-47
2021/12/02 03:51:10;;;;;;;3.28;1.80;;;27.90;72.20;;;;;;5066532;28;20045;-45
2021/12/02 03:53:37;;;;;;;4.43;2.10;;;27.90;72.30;;;;;;5066137;28;20249;-46
2021/12/02 03:56:09;;;;;;;4.40;2.10;;;27.90;72.30;;;;;;5065268;28;20096;-49
2021/12/02 03:58:38;;;;;;;4.50;2.00;;;27.90;71.90;;;;;;5079071;28;20025;-47
2021/12/02 04:01:06;;;;;;;4.13;2.00;;;27.90;71.80;;;;;;5086325;28;20021;-50
2021/12/02 04:03:33;;;;;;;9.48;2.30;;;27.90;71.70;;;;;;5091045;28;20019;-46
2021/12/02 04:06:00;;;;;;;3.88;2.13;;;27.90;71.50;;;;;;5074704;28;20025;-46
2021/12/02 04:08:31;;;;;;;4.32;2.10;;;27.90;71.40;;;;;;5084459;28;20017;-48
2021/12/02 04:11:12;;;;;;;3.05;2.17;;;27.90;71.10;;;;;;5085841;28;20120;-47
2021/12/02 04:14:28;;;;;;;4.90;1.60;;;27.90;71.10;;;;;;5085879;28;20313;-44
2021/12/02 04:16:27;;;;;;;5.72;1.70;;;27.90;71.20;;;;;;5074908;28;20262;-45
2021/12/02 04:18:54;;;;;;;5.20;1.95;;;27.90;71.20;;;;;;5085535;28;20043;-48
2021/12/02 04:21:20;;;;;;;5.10;1.95;;;27.90;70.80;;;;;;5085744;28;20083;-45
2021/12/02 04:23:47;;;;;;;4.32;1.80;;;27.90;70.80;;;;;;5068205;28;20019;-47
2021/12/02 04:26:14;;;;;;;5.38;1.98;;;27.90;70.80;;;;;;5086106;28;20028;-48
2021/12/02 04:28:48;;;;;;;4.07;2.28;;;27.90;70.80;;;;;;5085468;28;20321;-50
2021/12/02 04:31:14;;;;;;;5.80;1.67;;;27.90;70.70;;;;;;5085584;28;20036;-52
2021/12/02 04:33:41;;;;;;;5.90;2.22;;;27.90;70.60;;;;;;5085324;28;20083;-51
2021/12/02 04:36:08;;;;;;;7.32;1.70;;;27.90;70.50;;;;;;5085353;28;20065;-45
2021/12/02 04:38:36;;;;;;;4.10;1.85;;;27.90;70.40;;;;;;5085149;28;20258;-43
2021/12/02 04:41:03;;;;;;;3.22;1.70;;;27.90;70.20;;;;;;5085618;28;20024;-43
2021/12/02 04:43:30;;;;;;;3.53;1.75;;;27.90;70.20;;;;;;5085230;28;20016;-43
2021/12/02 04:45:57;;;;;;;9.98;1.73;;;27.90;70.20;;;;;;5105121;28;20035;-43
2021/12/02 04:48:23;;;;;;;3.22;1.38;;;27.90;70.00;;;;;;5086698;28;20020;-47
2021/12/02 04:50:51;;;;;;;2.67;1.50;;;27.90;70.20;;;;;;5070488;28;20041;-48
2021/12/02 04:53:17;;;;;;;4.13;1.73;;;27.80;70.10;;;;;;5059346;28;20021;-43
2021/12/02 04:55:44;;;;;;;3.88;1.73;;;27.80;70.10;;;;;;5069685;28;20053;-49
2021/12/02 04:58:11;;;;;;;3.00;1.63;;;27.80;70.10;;;;;;5105290;28;20042;-48
2021/12/02 05:00:37;;;;;;;2.15;1.52;;;27.80;69.90;;;;;;5105060;28;20024;-44
2021/12/02 05:03:04;;;;;;;7.28;1.95;;;27.80;69.80;;;;;;5080372;28;20023;-45
2021/12/02 05:05:33;;;;;;;5.45;1.60;;;27.80;69.90;;;;;;5066330;28;20304;-44
2021/12/02 05:08:02;;;;;;;3.38;1.60;;;27.80;69.50;;;;;;5100815;28;20410;-55
2021/12/02 05:10:29;;;;;;;4.70;1.67;;;27.70;69.70;;;;;;5072801;28;20035;-47
2021/12/02 05:12:56;;;;;;;4.88;1.65;;;27.70;69.80;;;;;;5084650;28;20028;-45
2021/12/02 05:15:22;;;;;;;4.35;1.75;;;27.80;69.90;;;;;;5084874;28;20099;-42
2021/12/02 05:17:49;;;;;;;4.40;1.90;;;27.80;70.10;;;;;;5084435;28;20031;-44
2021/12/02 05:20:16;;;;;;;4.05;1.33;;;27.70;70.40;;;;;;5084776;28;20028;-52
2021/12/02 05:22:43;;;;;;;4.53;1.88;;;27.70;70.60;;;;;;5084720;28;20023;-46
2021/12/02 05:25:10;;;;;;;2.40;1.80;;;27.70;70.70;;;;;;5082252;28;20020;-42
2021/12/02 05:27:36;;;;;;;2.95;1.60;;;27.70;70.70;;;;;;5077787;28;20013;-54
2021/12/02 05:30:04;;;;;;;4.25;1.50;;;27.70;70.90;;;;;;5072513;28;20033;-47
2021/12/02 05:32:30;;;;;;;4.38;1.70;;;27.70;70.90;;;;;;5056215;28;20025;-54
2021/12/02 05:34:58;;;;;;;3.13;1.67;;;27.70;70.80;;;;;;5073731;28;20083;-46
2021/12/02 05:37:25;;;;;;;3.95;1.65;;;27.60;71.30;;;;;;5071994;28;20029;-49
2021/12/02 05:39:52;;;;;;;3.15;1.50;;;27.60;71.10;;;;;;5073728;28;20020;-44
2021/12/02 05:42:19;;;;;;;2.97;1.60;;;27.60;71.30;;;;;;5055926;28;20021;-46
2021/12/02 05:44:46;;;;;;;5.40;1.60;;;27.60;71.50;;;;;;5072416;28;20017;-43
2021/12/02 05:47:13;;;;;;;2.70;1.63;;;27.60;71.40;;;;;;5073474;28;20273;-51
2021/12/02 05:49:40;;;;;;;5.18;1.80;;;27.50;71.80;;;;;;5081281;28;20025;-52
2021/12/02 05:52:07;;;;;;;6.18;1.90;;;27.50;71.80;;;;;;5084043;28;20051;-44
2021/12/02 05:54:33;;;;;;;5.65;1.83;;;27.50;71.80;;;;;;5084215;28;20084;-48
2021/12/02 05:57:00;;;;;;;3.88;1.52;;;27.50;72.00;;;;;;5083832;28;20328;-43
2021/12/02 05:59:26;;;;;;;3.10;1.35;;;27.50;72.00;;;;;;5084046;28;20033;-42
2021/12/02 06:01:53;;;;;;;2.75;1.67;;;27.50;72.00;;;;;;5083933;28;20021;-45
2021/12/02 06:04:20;;;;;;;6.68;1.70;;;27.50;72.30;;;;;;5065845;28;20021;-41
2021/12/02 06:06:46;;;;;;;2.42;1.80;;;27.40;72.80;;;;;;5083881;28;20016;-43
2021/12/02 06:09:15;;;;;;;3.55;1.80;;;27.40;73.00;;;;;;5083905;28;20194;-44
2021/12/02 06:11:42;;;;;;;6.18;1.75;;;27.40;73.00;;;;;;5083791;28;20226;-49
2021/12/02 06:14:08;;;;;;;5.90;1.77;;;27.40;73.10;;;;;;5085908;28;20323;-43
2021/12/02 06:16:35;;;;;;;2.22;1.52;;;27.40;73.40;;;;;;5104074;28;20051;-50
2021/12/02 06:19:01;;;;;;;6.35;2.80;;;27.40;73.40;;;;;;5105851;28;20024;-42
2021/12/02 06:21:28;;;;;;;3.70;2.30;;;27.40;73.80;;;;;;5090282;28;20219;-51
2021/12/02 06:23:56;;;;;;;3.75;2.20;;;27.30;74.00;;;;;;5085814;28;20213;-43
2021/12/02 06:26:22;;;;;;;7.55;2.58;;;27.30;74.00;;;;;;5104416;28;20095;-45
2021/12/02 06:28:49;;;;;;;5.38;2.35;;;27.30;74.20;;;;;;5108135;28;20020;-47
2021/12/02 06:31:15;;;;;;;3.97;2.22;;;27.30;74.50;;;;;;5108549;28;20312;-44
2021/12/02 06:33:42;;;;;;;5.15;2.10;;;27.30;74.50;;;;;;5089672;28;20095;-53
2021/12/02 06:36:09;;;;;;;4.35;2.28;;;27.30;74.70;;;;;;5108099;28;20059;-44
2021/12/02 06:38:35;;;;;;;4.45;2.53;;;27.30;74.70;;;;;;5107803;28;20085;-43
2021/12/02 06:41:02;;;;;;;4.18;2.35;;;27.20;74.90;;;;;;5108250;28;20024;-47
2021/12/02 06:43:28;;;;;;;7.93;2.40;;;27.20;75.10;;;;;;5089701;28;20095;-44
2021/12/02 06:45:55;;;;;;;5.35;2.30;;;27.20;75.30;;;;;;5108258;28;20206;-45
2021/12/02 06:48:22;;;;;;;4.82;2.20;;;27.20;75.70;;;;;;5107885;28;20023;-47
2021/12/02 06:50:49;;;;;;;7.07;2.38;;;27.20;75.80;;;;;;5108008;28;20032;-52
2021/12/02 06:53:17;;;;;;;5.00;2.50;;;27.20;76.20;;;;;;5107657;28;20016;-44
2021/12/02 06:55:44;;;;;;;5.75;2.20;;;27.20;76.10;;;;;;5089732;28;20031;-45
2021/12/02 06:58:11;;;;;;;4.97;2.30;;;27.20;76.10;;;;;;5107471;28;20016;-41
2021/12/02 07:00:38;;;;;;;5.43;2.20;;;27.20;76.30;;;;;;5107756;28;20363;-49
2021/12/02 07:03:04;;;;;;;4.90;2.28;;;27.10;76.80;;;;;;5107332;28;20043;-54
2021/12/02 07:05:33;;;;;;;4.75;2.33;;;27.10;76.90;;;;;;5107527;28;20020;-49
2021/12/02 07:08:00;;;;;;;5.25;2.40;;;27.10;76.60;;;;;;5107231;28;20215;-54
2021/12/02 07:10:28;;;;;;;5.22;2.40;;;27.10;76.40;;;;;;5107583;28;20035;-50
2021/12/02 07:12:56;;;;;;;5.25;2.28;;;27.10;76.50;;;;;;5106956;28;20024;-49
2021/12/02 07:15:45;;;;;;;5.65;2.60;;;27.10;76.60;;;;;;5107433;28;20104;-53
2021/12/02 07:18:13;;;;;;;7.20;2.28;;;27.10;76.60;;;;;;5107408;28;20091;-44
2021/12/02 07:20:41;;;;;;;3.80;2.22;;;27.10;76.30;;;;;;5107398;28;20024;-48
2021/12/02 07:23:07;;;;;;;15.65;2.30;;;27.10;76.00;;;;;;5088912;28;20024;-50
2021/12/02 07:25:40;;;;;;;2.72;1.90;;;27.10;75.90;;;;;;5107129;28;20043;-46
2021/12/02 07:28:09;;;;;;;5.63;2.20;;;27.00;75.70;;;;;;5107158;28;20028;-49
2021/12/02 07:30:36;;;;;;;9.57;2.50;;;27.10;75.60;;;;;;5106772;28;20024;-45
2021/12/02 07:33:04;;;;;;;4.32;2.05;;;27.10;75.50;;;;;;5106969;28;20327;-48
2021/12/02 07:35:31;;;;;;;4.45;2.15;;;27.00;75.30;;;;;;5072525;28;20036;-52
2021/12/02 07:38:00;;;;;;;5.05;2.50;;;27.10;75.40;;;;;;5106582;28;20087;-44
2021/12/02 07:40:29;;;;;;;3.15;2.10;;;27.10;75.20;;;;;;5088799;28;20194;-46
2021/12/02 07:42:58;;;;;;;6.05;2.10;;;27.10;75.10;;;;;;5106774;28;20020;-49
2021/12/02 07:45:29;;;;;;;4.55;2.05;;;27.10;75.30;;;;;;5106888;28;20026;-51
2021/12/02 07:47:56;;;;;;;5.07;2.43;;;27.10;74.80;;;;;;5106612;28;20432;-46
2021/12/02 07:50:23;;;;;;;3.70;2.17;;;27.10;74.60;;;;;;5106972;28;20550;-46
2021/12/02 07:52:52;;;;;;;4.07;2.13;;;27.10;74.70;;;;;;5106343;28;20086;-48
2021/12/02 07:55:20;;;;;;;3.10;1.90;;;27.10;74.40;;;;;;5106801;28;20031;-50
2021/12/02 07:57:47;;;;;;;4.00;2.17;;;27.10;74.30;;;;;;5106529;28;20019;-46
2021/12/02 08:00:23;;;;;;;5.22;2.13;;;27.10;74.40;;;;;;5106580;28;20024;-46
2021/12/02 08:02:53;;;;;;;4.05;2.22;;;27.10;74.20;;;;;;5088349;28;20016;-45
2021/12/02 08:05:24;;;;;;;15.85;2.53;;;27.10;74.50;;;;;;5106548;28;20027;-51
2021/12/02 08:07:52;;;;;;;4.25;2.00;;;27.10;74.50;;;;;;5106650;28;20023;-53
2021/12/02 08:10:20;;;;;;;6.20;2.40;;;27.10;74.70;;;;;;5106105;28;20042;-44
2021/12/02 08:12:48;;;;;;;5.18;2.17;;;27.10;74.70;;;;;;5105888;28;20027;-43
2021/12/02 08:15:21;;;;;;;4.53;2.38;;;27.10;74.80;;;;;;5106258;28;20031;-44
2021/12/02 08:17:48;;;;;;;5.60;2.50;;;27.10;74.90;;;;;;5105977;28;20371;-44
2021/12/02 08:20:16;;;;;;;3.30;2.40;;;27.10;75.00;;;;;;5106134;28;20032;-45
2021/12/02 08:22:42;;;;;;;5.72;2.13;;;27.00;75.20;;;;;;5105960;28;20038;-45
2021/12/02 08:25:10;;;;;;;4.72;2.38;;;27.00;75.20;;;;;;5106031;28;20024;-47
2021/12/02 08:27:36;;;;;;;4.93;2.28;;;27.00;75.20;;;;;;5105605;28;20239;-52
2021/12/02 08:30:05;;;;;;;7.78;2.50;;;27.00;75.30;;;;;;5106061;28;20300;-45
2021/12/02 08:32:32;;;;;;;5.40;2.80;;;27.00;75.50;;;;;;5105666;28;20061;-52
2021/12/02 08:35:00;;;;;;;5.05;2.55;;;27.00;75.50;;;;;;5105656;28;20027;-49
2021/12/02 08:37:30;;;;;;;7.00;2.60;;;27.00;75.80;;;;;;5105219;28;20052;-51
2021/12/02 08:39:59;;;;;;;5.53;2.55;;;27.10;75.90;;;;;;5105590;28;20032;-48
2021/12/02 08:42:27;;;;;;;5.63;2.30;;;27.00;76.00;;;;;;5104918;28;20137;-49
2021/12/02 08:44:54;;;;;;;5.18;2.65;;;27.00;76.60;;;;;;5105659;28;20024;-51
2021/12/02 08:47:25;;;;;;;5.57;2.60;;;27.00;76.70;;;;;;5105367;28;20087;-46
2021/12/02 08:49:53;;;;;;;5.53;2.75;;;27.00;76.70;;;;;;5105433;28;20058;-44
2021/12/02 08:52:24;;;;;;;4.70;2.40;;;27.00;76.80;;;;;;5105577;28;20024;-47
2021/12/02 08:54:52;;;;;;;4.30;2.60;;;27.00;77.20;;;;;;5105354;28;20063;-51
2021/12/02 08:57:21;;;;;;;5.10;2.65;;;27.00;77.20;;;;;;5105353;28;20055;-49
2021/12/02 08:59:49;;;;;;;4.88;2.70;;;27.00;77.30;;;;;;5105309;28;20048;-49
2021/12/02 09:02:16;;;;;;;8.18;3.00;;;26.90;77.30;;;;;;5105021;28;20304;-55
2021/12/02 09:04:43;;;;;;;6.10;2.30;;;26.90;77.10;;;;;;5105190;28;20026;-52
2021/12/02 09:07:10;;;;;;;6.63;2.85;;;26.90;77.00;;;;;;5105017;28;20264;-49
2021/12/02 09:09:37;;;;;;;6.30;2.72;;;26.90;77.20;;;;;;5105040;28;20027;-49
2021/12/02 09:12:04;;;;;;;6.50;2.70;;;26.90;77.30;;;;;;5104885;28;20034;-45
2021/12/02 09:14:31;;;;;;;6.00;2.50;;;26.90;77.50;;;;;;5104920;28;20035;-49
2021/12/02 09:16:57;;;;;;;6.10;2.53;;;26.90;77.80;;;;;;5104643;28;20027;-49
2021/12/02 09:19:25;;;;;;;6.05;2.70;;;26.90;77.50;;;;;;5104731;28;20032;-54
2021/12/02 09:21:52;;;;;;;6.70;2.40;;;26.90;77.80;;;;;;5104819;28;20027;-53
2021/12/02 09:24:18;;;;;;;6.72;2.88;;;26.80;77.80;;;;;;5104685;28;20024;-48
2021/12/02 09:26:50;;;;;;;4.43;2.65;;;26.80;77.70;;;;;;5104694;28;20087;-47
2021/12/02 09:29:18;;;;;;;7.37;2.67;;;26.90;78.20;;;;;;5104756;28;20027;-48
2021/12/02 09:31:45;;;;;;;7.15;2.90;;;26.80;78.00;;;;;;5104613;28;20026;-50
2021/12/02 09:34:12;;;;;;;9.25;3.20;;;26.80;78.00;;;;;;5104504;28;20051;-49
2021/12/02 09:36:39;;;;;;;8.68;2.60;;;26.80;78.40;;;;;;5104439;28;20048;-46
2021/12/02 09:39:07;;;;;;;6.38;2.63;;;26.80;78.70;;;;;;5104297;28;20185;-53
2021/12/02 09:41:34;;;;;;;7.93;2.85;;;26.80;79.00;;;;;;5104636;28;20054;-48
2021/12/02 09:44:02;;;;;;;8.40;2.80;;;26.80;79.40;;;;;;5104644;28;20362;-48
2021/12/02 09:46:29;;;;;;;6.30;2.28;;;26.80;79.40;;;;;;5104592;28;20048;-50
2021/12/02 09:49:00;;;;;;;4.53;3.03;;;26.80;79.50;;;;;;5104562;28;20352;-48
2021/12/02 09:51:32;;;;;;;6.85;2.72;;;26.80;79.70;;;;;;5104238;28;20055;-51
2021/12/02 09:54:11;;;;;;;6.15;2.70;;;26.80;79.70;;;;;;5103305;28;20095;-50
2021/12/02 09:56:40;;;;;;;9.23;2.70;;;26.80;79.80;;;;;;5104610;28;20024;-49
2021/12/02 09:59:12;;;;;;;5.82;2.67;;;26.80;80.00;;;;;;5103942;28;20032;-48
2021/12/02 10:01:43;;;;;;;8.95;2.70;;;26.80;79.60;;;;;;5104248;28;20020;-45
2021/12/02 10:04:11;;;;;;;5.20;2.85;;;26.80;79.80;;;;;;5086798;28;20065;-49
2021/12/02 10:06:40;;;;;;;5.20;2.42;;;26.80;79.70;;;;;;5104075;28;20024;-45
2021/12/02 10:10:05;;;;;;;3.67;2.40;;;26.80;79.90;;;;;;5104184;28;20024;-48
2021/12/02 10:12:11;;;;;;;4.03;2.53;;;26.80;80.20;;;;;;5090051;28;20341;-46
2021/12/02 10:14:39;;;;;;;3.97;2.60;;;26.80;80.20;;;;;;5104273;28;20027;-47
2021/12/02 10:17:21;;;;;;;5.28;2.63;;;26.70;80.10;;;;;;5104253;28;20027;-47
2021/12/02 10:25:40;;;;;;;5.85;2.30;;;26.70;80.60;;;;;;5104301;28;20048;-50
2021/12/02 10:28:12;;;;;;;4.65;2.88;;;26.70;80.70;;;;;;5103937;28;20023;-45
2021/12/02 10:30:53;;;;;;;8.30;3.20;;;26.70;80.90;;;;;;5104336;28;20028;-54
2021/12/02 10:33:50;;;;;;;11.32;7.05;;;26.70;81.00;;;;;;5103984;28;20028;-46
2021/12/02 10:36:39;;;;;;;12.32;7.82;;;26.70;81.60;;;;;;5103791;28;20044;-52
2021/12/02 10:39:20;;;;;;;11.57;7.20;;;26.70;81.40;;;;;;5103594;28;20028;-45
2021/12/02 10:42:00;;;;;;;12.23;6.15;;;26.70;81.50;;;;;;5085752;28;20019;-45
2021/12/02 10:44:31;;;;;;;13.32;5.38;;;26.70;82.10;;;;;;5085725;28;20037;-55
2021/12/02 10:47:17;;;;;;;18.70;5.10;;;26.70;81.60;;;;;;5103809;28;20012;-49
2021/12/02 10:49:57;;;;;;;16.83;4.78;;;26.70;81.70;;;;;;5104048;28;20024;-52
2021/12/02 10:52:28;;;;;;;15.77;5.00;;;26.70;81.60;;;;;;5087386;28;20029;-49
2021/12/02 10:55:20;;;;;;;13.07;4.20;;;26.70;81.60;;;;;;5087269;28;20047;-46
2021/12/02 10:57:49;;;;;;;11.80;3.60;;;26.70;81.60;;;;;;5103571;28;20016;-47
2021/12/02 11:00:22;;;;;;;7.53;3.88;;;26.70;81.20;;;;;;5085609;28;20053;-49
2021/12/02 11:02:55;;;;;;;13.25;3.72;;;26.70;81.00;;;;;;5103696;28;20023;-51
2021/12/02 11:05:29;;;;;;;9.88;3.55;;;26.70;81.00;;;;;;5106254;28;20023;-45
2021/12/02 11:08:16;;;;;;;9.95;3.65;;;26.70;80.60;;;;;;5107406;28;20020;-47
2021/12/02 11:10:51;;;;;;;7.72;4.00;;;26.70;80.90;;;;;;5107586;28;20024;-51
2021/12/02 11:13:24;;;;;;;9.05;4.20;;;26.70;80.80;;;;;;5107321;28;20216;-48
2021/12/02 11:15:50;;;;;;;10.13;4.00;;;26.70;80.80;;;;;;5107527;28;20031;-44
2021/12/02 11:18:17;;;;;;;9.15;4.45;;;26.60;80.70;;;;;;5107085;28;20047;-45
2021/12/02 11:20:50;;;;;;;10.77;4.20;;;26.70;80.80;;;;;;5107433;28;20245;-47
2021/12/02 11:23:19;;;;;;;13.05;4.78;;;26.70;81.10;;;;;;5106870;28;20305;-52
2021/12/02 11:26:10;;;;;;;16.55;4.68;;;26.70;80.90;;;;;;5106771;28;20031;-48
2021/12/02 11:28:39;;;;;;;15.10;4.60;;;26.60;81.30;;;;;;5088768;28;20020;-53
2021/12/02 11:31:17;;;;;;;12.63;4.35;;;26.60;81.40;;;;;;5107288;28;20104;-53
2021/12/02 11:33:46;;;;;;;8.88;4.43;;;26.70;81.80;;;;;;5106671;28;20051;-54
2021/12/02 11:36:24;;;;;;;13.10;4.55;;;26.60;82.50;;;;;;5106845;28;20054;-48
2021/12/02 11:38:55;;;;;;;12.70;4.75;;;26.60;83.60;;;;;;5100550;28;20042;-48
2021/12/02 11:41:22;;;;;;;8.60;4.40;;;26.60;84.50;;;;;;5105822;28;20042;-47
2021/12/02 11:43:49;;;;;;;11.05;5.20;;;26.60;84.70;;;;;;5088889;28;20372;-55
2021/12/02 11:46:17;;;;;;;11.25;4.90;;;26.60;85.20;;;;;;5106893;28;20028;-54
2021/12/02 11:48:44;;;;;;;11.13;4.75;;;26.60;85.90;;;;;;5106768;28;20028;-55
2021/12/02 11:51:17;;;;;;;10.07;5.40;;;26.60;85.90;;;;;;5106961;28;20028;-49
2021/12/02 11:53:44;;;;;;;9.23;5.65;;;26.60;85.90;;;;;;5106829;28;20213;-50
2021/12/02 11:56:13;;;;;;;10.55;5.47;;;26.60;86.20;;;;;;5107338;28;20055;-51
2021/12/02 11:58:40;;;;;;;9.93;5.47;;;26.60;86.20;;;;;;5107036;28;20374;-49
2021/12/02 12:01:13;;;;;;;11.18;5.72;;;26.60;86.90;;;;;;5103496;28;20148;-51
2021/12/02 12:03:51;;;;;;;10.23;5.35;;;26.60;86.90;;;;;;5106657;28;20015;-53
2021/12/02 12:06:33;;;;;;;8.95;5.57;;;26.60;87.00;;;;;;5106249;28;20317;-51
2021/12/02 12:09:04;;;;;;;10.02;5.82;;;26.60;87.00;;;;;;5106151;28;20027;-48
2021/12/02 12:11:33;;;;;;;10.50;5.75;;;26.60;87.20;;;;;;5106241;28;20328;-48
2021/12/02 12:14:03;;;;;;;10.65;5.82;;;26.60;87.30;;;;;;5105946;28;20042;-47
2021/12/02 12:16:34;;;;;;;13.00;6.43;;;26.60;87.50;;;;;;5105380;28;20024;-50
2021/12/02 12:19:31;;;;;;;8.93;5.70;;;26.60;87.70;;;;;;5106010;28;20045;-50
2021/12/02 12:22:03;;;;;;;10.50;6.07;;;26.70;88.00;;;;;;5089840;28;20051;-53
2021/12/02 12:24:49;;;;;;;9.65;5.53;;;26.60;87.60;;;;;;5106168;28;20077;-54
2021/12/02 12:27:20;;;;;;;11.30;5.47;;;26.60;87.50;;;;;;5099378;28;20216;-50
2021/12/02 12:30:22;;;;;;;11.30;5.43;;;26.60;87.60;;;;;;5106145;28;20056;-49
2021/12/02 12:38:25;;;;;;;8.80;5.03;;;26.60;87.70;;;;;;5065378;28;20032;-55
2021/12/02 12:41:18;;;;;;;9.05;5.18;;;26.60;87.40;;;;;;5065193;28;20028;-47
2021/12/02 12:43:54;;;;;;;7.75;4.50;;;26.60;87.20;;;;;;5064213;28;20363;-55
2021/12/02 12:46:23;;;;;;;8.55;4.70;;;26.60;87.70;;;;;;5064944;28;20027;-49
2021/12/02 12:48:52;;;;;;;11.65;4.97;;;26.60;87.70;;;;;;5065100;28;20052;-53
2021/12/02 12:51:25;;;;;;;11.95;4.88;;;26.60;87.80;;;;;;5065025;28;20091;-52
2021/12/02 12:53:55;;;;;;;8.60;4.85;;;26.60;87.60;;;;;;5064867;28;20021;-52
2021/12/02 12:56:34;;;;;;;10.40;4.90;;;26.60;86.90;;;;;;5065130;28;20029;-52
2021/12/02 12:59:26;;;;;;;8.75;4.32;;;26.60;86.80;;;;;;5064571;28;20088;-49
2021/12/02 13:02:01;;;;;;;8.43;4.35;;;26.60;86.40;;;;;;5065176;28;20085;-50
2021/12/02 13:04:33;;;;;;;8.45;4.60;;;26.60;86.60;;;;;;5065129;28;20056;-58
2021/12/02 13:07:20;;;;;;;8.82;4.00;;;26.60;86.40;;;;;;5065064;28;20021;-55
2021/12/02 13:10:03;;;;;;;8.27;4.15;;;26.60;85.80;;;;;;5064857;28;20096;-54
2021/12/02 13:12:54;;;;;;;13.57;4.18;;;26.60;86.20;;;;;;5061882;28;20029;-49
2021/12/02 13:15:27;;;;;;;9.07;4.45;;;26.60;86.60;;;;;;5064675;28;20033;-49
2021/12/02 13:18:02;;;;;;;12.85;4.60;;;26.60;86.40;;;;;;5064901;28;20100;-50
2021/12/02 13:20:38;;;;;;;12.25;4.35;;;26.60;85.90;;;;;;5064542;28;20092;-50
2021/12/02 13:23:27;;;;;;;9.95;4.63;;;26.60;86.10;;;;;;5063730;28;20053;-57
2021/12/02 13:25:59;;;;;;;9.80;4.50;;;26.60;86.30;;;;;;5064316;28;20024;-54
2021/12/02 13:28:44;;;;;;;9.52;4.50;;;26.60;86.30;;;;;;5064110;28;20025;-46
2021/12/02 13:31:13;;;;;;;7.03;4.07;;;26.60;85.80;;;;;;5058963;28;20028;-51